FW8702 Weather Reports


Display with metric or nautical units.
time (UTC)temp
F
wind
direction
speed
MPH
gust
MPH
rain 1hr
in
rain 24hr
in
rain mn
in
humidity
%
barometer
mb
20220525064536 63 147 1.0 3.0 0.00 0.20 0.06 86 1013.0
20220525063036 63 96 0.0 2.0 0.00 0.20 0.06 88 1012.8
20220525061547 62 61 4.0 7.0 0.00 0.20 0.06 86 1012.4
20220525060020 62 61 4.0 12.0 0.00 0.20 0.06 84 1012.4
20220525054540 61 93 2.0 8.0 0.00 0.20 0.06 86 1012.6
20220525053006 61 91 2.0 6.0 0.01 0.20 0.06 87 1012.3
20220525051548 61 87 4.0 11.0 0.01 0.20 0.06 86 1012.1
20220525050105 61 59 4.0 11.0 0.01 0.20 0.06 86 1011.9
20220525044512 62 26 4.0 7.0 0.01 0.20 0.06 85 1011.8
20220525043027 62 19 4.0 9.0 0.00 0.19 0.05 84 1011.7
20220525041551 62 45 6.0 10.0 0.00 0.19 0.05 84 1011.4
20220525040004 62 70 4.0 10.0 0.00 0.19 0.05 84 1011.2
20220525034544 62 77 4.0 12.0 0.00 0.19 0.05 86 1010.9
20220525031536 62 55 5.0 12.0 0.00 0.19 0.05 86 1010.7
20220525030056 62 78 6.0 14.0 0.00 0.19 0.05 84 1010.5
20220525024557 62 45 5.0 12.0 0.00 0.19 0.05 86 1010.5
20220525023049 62 360 3.0 6.0 0.00 0.19 0.05 87 1010.3
20220525021511 62 17 4.0 9.0 0.00 0.19 0.05 87 1010.4
20220525020048 62 52 6.0 10.0 0.02 0.19 0.05 87 1010.2
20220525014558 62 64 5.0 8.0 0.05 0.19 0.05 88 1010.3
20220525013010 61 108 3.0 9.0 0.05 0.19 0.05 90 1010.2
20220525011515 61 127 0.0 4.0 0.05 0.19 0.05 91 1010.2
20220525010044 62 80 3.0 7.0 0.02 0.16 0.02 90 1009.9
20220525004534 62 5 1.0 2.0 0.00 0.14 0.00 88 1010.1
20220525003006 62 5 0.0 3.0 0.00 0.14 0.00 87 1009.7
20220525001554 63 294 1.0 9.0 0.00 0.14 0.00 85 1009.6
20220525000045 63 30 4.0 8.0 0.00 0.14 0.00 86 1009.6
20220524234519 62 28 1.0 3.0 0.00 0.14 0.00 89 1009.7
20220524233045 63 28 1.0 6.0 0.00 0.14 0.00 88 1009.3
20220524231600 62 275 0.0 0.0 0.00 0.14 0.00 90 1009.6
20220524230054 62 275 0.0 3.0 0.00 0.14 0.00 90 1009.7
20220524224522 62 76 0.0 4.0 0.00 0.14 0.00 90 1009.5
20220524223043 63 76 1.0 3.0 0.00 0.14 0.00 89 1009.6
20220524221508 63 113 3.0 8.0 0.00 0.14 0.00 87 1009.6
20220524220032 63 75 4.0 7.0 0.00 0.14 0.00 86 1009.5
20220524214604 63 65 3.0 8.0 0.00 0.14 0.14 86 1009.2
20220524213017 63 60 3.0 7.0 0.01 0.14 0.14 85 1009.0
20220524211634 63 96 2.0 6.0 0.01 0.14 0.14 87 1008.9
20220524210059 63 102 3.0 6.0 0.02 0.14 0.14 90 1009.2
20220524204556 64 309 1.0 9.0 0.03 0.14 0.14 89 1009.3
20220524203009 63 46 2.0 5.0 0.04 0.13 0.13 90 1008.9
20220524201542 63 150 1.0 7.0 0.06 0.13 0.13 89 1009.2
20220524200049 64 226 3.0 6.0 0.08 0.12 0.12 88 1008.3
20220524194556 64 355 4.0 17.0 0.08 0.11 0.11 87 1008.1
20220524193023 64 45 3.0 6.0 0.08 0.09 0.09 87 1008.0
20220524191552 65 276 0.0 4.0 0.06 0.07 0.07 87 1008.2
20220524190036 66 26 1.0 6.0 0.03 0.04 0.04 85 1007.2
20220524184516 66 28 3.0 6.0 0.01 0.02 0.02 80 1007.7
20220524183109 67 15 4.0 10.0 0.00 0.01 0.01 77 1007.5
20220524181512 67 5 2.0 3.0 0.00 0.01 0.01 79 1007.2
20220524180058 67 30 4.0 9.0 0.00 0.01 0.01 77 1006.3
20220524180027 67 76 5.0 9.0 0.00 0.01 0.01 77 1006.3
20220524174552 67 242 0.0 3.0 0.00 0.01 0.01 78 1006.0
20220524173122 67 348 1.0 8.0 0.00 0.01 0.01 77 1005.8
20220524171539 67 68 3.0 9.0 0.00 0.01 0.01 77 1006.1
20220524170010 69 31 3.0 7.0 0.00 0.01 0.01 75 1006.1
20220524164503 69 59 3.0 10.0 0.00 0.01 0.01 74 1006.2
20220524163051 68 63 6.0 15.0 0.00 0.01 0.01 75 1006.5
20220524161532 68 58 4.0 16.0 0.00 0.01 0.01 74 1006.5
20220524160055 68 86 7.0 14.0 0.00 0.01 0.01 75 1006.4
20220524154600 69 106 5.0 15.0 0.00 0.01 0.01 75 1006.2
20220524153039 69 79 8.0 14.0 0.00 0.01 0.01 74 1006.5
20220524151526 69 42 6.0 13.0 0.00 0.01 0.01 73 1005.9
20220524150017 70 44 6.0 12.0 0.00 0.01 0.01 74 1006.3
20220524144511 72 60 4.0 10.0 0.00 0.01 0.01 73 1006.3
20220524143010 73 5 1.0 5.0 0.00 0.01 0.01 68 1006.6
20220524141535 70 109 0.0 4.0 0.00 0.01 0.01 76 1007.0
20220524140123 67 355 1.0 5.0 0.00 0.01 0.01 84 1007.0
20220524134548 66 316 3.0 7.0 0.00 0.01 0.01 85 1007.1
20220524133026 66 303 1.0 10.0 0.00 0.01 0.01 85 1007.5
20220524131530 66 313 1.0 6.0 0.00 0.01 0.01 84 1007.4
20220524130010 67 286 4.0 13.0 0.00 0.01 0.01 84 1007.4
20220524124520 67 315 5.0 12.0 0.00 0.01 0.01 84 1007.7
20220524123010 68 306 2.0 5.0 0.00 0.01 0.01 83 1007.2
20220524121523 67 12 2.0 10.0 0.00 0.01 0.01 83 1007.4
20220524120101 67 304 2.0 9.0 0.00 0.01 0.01 85 1007.3
20220524114506 67 325 1.0 7.0 0.00 0.01 0.01 85 1007.5
20220524113051 67 298 2.0 6.0 0.00 0.01 0.01 86 1007.5
20220524111553 67 5 2.0 6.0 0.00 0.01 0.01 85 1007.6
20220524110028 66 290 2.0 7.0 0.00 0.01 0.01 87 1007.7
20220524104605 66 311 0.0 3.0 0.00 0.01 0.01 87 1007.8
20220524104533 66 298 1.0 5.0 0.00 0.01 0.01 87 1007.8
20220524103032 66 294 1.0 4.0 0.01 0.01 0.01 86 1007.8
20220524101509 66 284 1.0 5.0 0.01 0.01 0.01 85 1007.7
20220524100005 66 5 2.0 6.0 0.01 0.01 0.01 83 1007.7
20220524094546 67 5 1.0 3.0 0.01 0.01 0.01 85 1007.7
20220524094510 67 5 1.0 4.0 0.01 0.01 0.01 85 1007.7
20220524093102 68 5 2.0 4.0 0.00 0.00 0.00 83 1007.7
20220524091524 68 5 1.0 5.0 0.00 0.00 0.00 80 1007.7
20220524090048 68 21 2.0 5.0 0.00 0.00 0.00 79 1007.6
20220524084506 68 316 1.0 3.0 0.00 0.00 0.00 80 1007.4
20220524083011 68 292 0.0 5.0 0.00 0.00 0.00 79 1007.3
20220524081546 69 304 1.0 7.0 0.00 0.00 0.00 79 1007.3
20220524080115 70 302 2.0 3.0 0.00 0.00 0.00 77 1007.2
20220524074511 70 338 1.0 6.0 0.00 0.00 0.00 77 1007.2
20220524073131 69 323 3.0 8.0 0.00 0.00 0.00 77 1007.3
20220524071515 69 312 3.0 5.0 0.00 0.00 0.00 78 1007.2
20220524070055 69 330 1.0 4.0 0.00 0.00 0.00 79 1007.2